createdAt,value
2022-09-13T00:04:53.135Z,65.27
2022-09-13T00:09:55.446Z,65.36
2022-09-13T00:14:57.715Z,65.59
2022-09-13T00:20:00.076Z,65.73
2022-09-13T00:25:06.273Z,65.62
2022-09-13T00:30:09.052Z,65.76
2022-09-13T00:35:11.512Z,65.99
2022-09-13T00:40:13.789Z,66.00
2022-09-13T00:45:18.146Z,66.46
2022-09-13T00:50:26.187Z,66.91
2022-09-13T00:55:52.265Z,66.97
2022-09-13T01:00:56.727Z,66.69
2022-09-13T01:06:04.100Z,67.34
2022-09-13T01:11:07.645Z,67.00
2022-09-13T01:16:09.865Z,67.02
2022-09-13T01:21:32.209Z,67.74
2022-09-13T01:26:58.517Z,67.76
2022-09-13T01:32:15.482Z,67.97
2022-09-13T01:38:10.794Z,68.00
2022-09-13T01:43:19.956Z,67.70
2022-09-13T01:48:30.556Z,68.25
2022-09-13T01:53:51.195Z,68.24
2022-09-13T01:58:58.309Z,68.08
2022-09-13T02:04:05.553Z,67.75
2022-09-13T02:09:16.659Z,68.16
2022-09-13T02:14:25.975Z,68.04
2022-09-13T02:19:34.011Z,68.36
2022-09-13T02:24:58.101Z,68.98
2022-09-13T02:30:08.724Z,68.75
2022-09-13T02:35:19.115Z,68.70
2022-09-13T02:40:26.857Z,69.16
2022-09-13T02:45:34.601Z,69.08
2022-09-13T02:51:18.203Z,69.74
2022-09-13T02:56:34.656Z,69.50
2022-09-13T03:01:38.015Z,69.01
2022-09-13T03:06:41.042Z,69.12
2022-09-13T03:11:58.673Z,69.69
2022-09-13T03:17:09.844Z,69.35
2022-09-13T03:22:38.087Z,70.00
2022-09-13T03:28:06.246Z,69.94
2022-09-13T03:33:17.369Z,69.81
2022-09-13T03:38:25.672Z,69.83
2022-09-13T03:43:40.876Z,69.68
2022-09-13T03:48:45.701Z,69.83
2022-09-13T03:53:52.320Z,69.89
2022-09-13T03:58:54.590Z,69.85
2022-09-13T04:03:57.259Z,69.62
2022-09-13T04:08:59.983Z,69.70
2022-09-13T04:14:03.724Z,69.71
2022-09-13T04:19:06.022Z,69.67
2022-09-13T04:24:08.291Z,69.75
2022-09-13T04:29:11.725Z,69.43
2022-09-13T04:34:14.303Z,69.76
2022-09-13T04:39:17.648Z,69.52
2022-09-13T04:44:20.926Z,69.20
2022-09-13T04:49:23.272Z,69.40
2022-09-13T04:54:27.642Z,69.03
2022-09-13T04:59:29.823Z,68.91
2022-09-13T05:04:32.152Z,69.02
2022-09-13T05:09:34.432Z,68.63
2022-09-13T05:14:36.645Z,68.44
2022-09-13T05:19:38.993Z,68.47
2022-09-13T05:24:41.235Z,68.30
2022-09-13T05:29:44.018Z,68.32
2022-09-13T05:34:46.240Z,68.25
2022-09-13T05:40:10.166Z,68.04
2022-09-13T05:45:16.184Z,68.02
2022-09-13T05:50:44.806Z,67.75
2022-09-13T05:55:40.812Z,67.62
2022-09-13T06:00:43.236Z,67.74
2022-09-13T06:05:45.423Z,67.73
2022-09-13T06:10:55.633Z,67.95
2022-09-13T06:15:58.952Z,67.51
2022-09-13T06:21:06.496Z,67.57
2022-09-13T06:26:10.955Z,67.56
2022-09-13T06:31:14.696Z,67.14
2022-09-13T06:36:19.055Z,67.61
2022-09-13T06:41:23.543Z,66.97
2022-09-13T06:46:27.690Z,67.16
2022-09-13T06:51:34.653Z,66.62
2022-09-13T06:56:38.985Z,66.50
2022-09-13T07:01:43.834Z,66.31
2022-09-13T07:06:48.064Z,65.87
2022-09-13T07:11:52.402Z,65.53
2022-09-13T07:16:55.126Z,65.35
2022-09-13T07:21:58.007Z,64.95
2022-09-13T07:27:00.307Z,64.69
2022-09-13T07:32:02.683Z,64.38
2022-09-13T07:37:05.213Z,64.09
2022-09-13T07:42:07.446Z,64.41
2022-09-13T07:47:09.741Z,64.57
2022-09-13T07:52:11.948Z,64.33
2022-09-13T07:57:14.160Z,63.72
2022-09-13T08:02:18.248Z,63.10
2022-09-13T08:07:20.731Z,63.35
2022-09-13T08:12:23.005Z,62.94
2022-09-13T08:17:25.218Z,62.12
2022-09-13T08:22:27.388Z,61.52
2022-09-13T08:27:29.632Z,60.09
2022-09-13T08:32:32.369Z,59.43
2022-09-13T08:37:34.702Z,58.17
2022-09-13T08:42:52.231Z,55.51
2022-09-13T08:48:04.764Z,55.02
2022-09-13T08:53:30.011Z,54.58
2022-09-13T08:58:55.103Z,54.35
2022-09-13T09:04:13.167Z,53.71
2022-09-13T09:09:17.865Z,53.60
2022-09-13T09:14:39.432Z,53.22
2022-09-13T09:19:44.677Z,53.40
2022-09-13T09:24:51.075Z,53.62
2022-09-13T09:29:55.378Z,53.16
2022-09-13T09:35:06.503Z,52.89
2022-09-13T09:40:12.859Z,51.79
2022-09-13T09:45:18.198Z,50.98
2022-09-13T09:50:25.051Z,50.48
2022-09-13T09:55:30.102Z,51.27
2022-09-13T10:00:35.656Z,51.53
2022-09-13T10:05:38.017Z,50.85
2022-09-13T10:10:43.563Z,50.25
2022-09-13T10:16:06.340Z,49.75
2022-09-13T10:21:29.445Z,50.07
2022-09-13T10:26:33.598Z,49.53
2022-09-13T10:31:40.924Z,49.10
2022-09-13T10:37:35.663Z,50.27
2022-09-13T10:42:37.897Z,49.81
2022-09-13T10:47:46.512Z,49.63
2022-09-13T10:52:58.997Z,50.59
2022-09-13T10:58:07.835Z,50.24
2022-09-13T11:03:31.015Z,50.72
2022-09-13T11:09:07.388Z,50.18
2022-09-13T11:14:20.643Z,51.34
2022-09-13T11:19:41.895Z,50.34
2022-09-13T11:24:54.226Z,50.91
2022-09-13T11:30:18.941Z,51.07
2022-09-13T11:35:34.953Z,51.43
2022-09-13T11:41:06.004Z,51.55
2022-09-13T11:46:36.191Z,51.31
2022-09-13T11:52:03.020Z,51.11
2022-09-13T11:57:10.743Z,51.18
2022-09-13T12:02:26.168Z,51.33
2022-09-13T12:07:34.785Z,51.45
2022-09-13T12:12:37.946Z,51.63
2022-09-13T12:17:44.308Z,51.73
2022-09-13T12:22:47.993Z,51.97
2022-09-13T12:28:23.230Z,51.66
2022-09-13T12:33:26.153Z,51.82
2022-09-13T12:38:47.217Z,51.78
2022-09-13T12:44:10.758Z,51.28
2022-09-13T12:49:33.327Z,50.88
2022-09-13T12:55:29.379Z,51.08
2022-09-13T13:00:41.349Z,51.87
2022-09-13T13:05:46.992Z,51.32
2022-09-13T13:11:15.661Z,51.46
2022-09-13T13:16:48.663Z,51.08
2022-09-13T13:21:50.946Z,51.46
2022-09-13T13:26:58.163Z,50.84
2022-09-13T13:32:02.025Z,51.57
2022-09-13T13:37:29.427Z,51.05
2022-09-13T13:42:33.385Z,51.09
2022-09-13T13:47:35.860Z,51.59
2022-09-13T13:53:04.005Z,50.95
2022-09-13T13:58:23.532Z,50.94
2022-09-13T14:03:28.792Z,52.02
2022-09-13T14:08:51.804Z,51.19
2022-09-13T14:14:00.874Z,51.57
2022-09-13T14:19:10.236Z,51.77
2022-09-13T14:24:22.991Z,51.53
2022-09-13T14:29:27.276Z,51.68
2022-09-13T14:34:38.901Z,51.13
2022-09-13T14:39:57.624Z,50.98
2022-09-13T14:45:01.279Z,51.16
2022-09-13T14:50:08.660Z,51.52
2022-09-13T14:55:15.899Z,50.89
2022-09-13T15:00:20.685Z,51.43
2022-09-13T15:05:28.279Z,50.25
2022-09-13T15:10:44.125Z,50.51
2022-09-13T15:15:46.674Z,51.01
2022-09-13T15:20:58.413Z,50.73
2022-09-13T15:26:08.267Z,51.06
2022-09-13T15:31:11.827Z,51.16
2022-09-13T15:36:19.935Z,51.42
2022-09-13T15:41:22.312Z,51.57
2022-09-13T15:46:24.867Z,51.29
2022-09-13T15:51:27.788Z,51.44
2022-09-13T15:56:35.868Z,51.97
2022-09-13T16:01:39.267Z,51.89
2022-09-13T16:06:41.812Z,51.59
2022-09-13T16:11:44.174Z,51.59
2022-09-13T16:16:47.129Z,51.29
2022-09-13T16:21:50.019Z,51.48
2022-09-13T16:26:52.344Z,52.14
2022-09-13T16:31:54.948Z,51.93
2022-09-13T16:36:57.352Z,52.40
2022-09-13T16:42:09.578Z,52.56
2022-09-13T16:47:14.968Z,52.65
2022-09-13T16:52:17.640Z,53.30
2022-09-13T16:57:20.488Z,54.06
2022-09-13T17:02:22.967Z,54.46
2022-09-13T17:07:25.496Z,54.62
2022-09-13T17:12:28.076Z,55.61
2022-09-13T17:17:36.339Z,55.50
2022-09-13T17:22:38.844Z,55.72
2022-09-13T17:27:41.195Z,55.90
2022-09-13T17:32:43.616Z,56.05
2022-09-13T17:37:47.400Z,55.90
2022-09-13T17:42:50.460Z,56.33
2022-09-13T17:47:53.871Z,55.88
2022-09-13T17:52:58.871Z,55.96
2022-09-13T17:58:01.215Z,55.75
2022-09-13T18:03:03.838Z,56.39
2022-09-13T18:13:37.276Z,57.44
2022-09-13T18:18:43.839Z,57.89
2022-09-13T18:23:48.199Z,58.50
2022-09-13T18:29:01.871Z,59.52
2022-09-13T18:34:07.093Z,59.13
2022-09-13T18:39:16.561Z,60.11
2022-09-13T18:44:21.035Z,59.52
2022-09-13T18:49:23.832Z,60.01
2022-09-13T18:54:26.208Z,60.19
2022-09-13T18:59:30.627Z,60.55
2022-09-13T19:04:35.153Z,61.13
2022-09-13T19:09:37.592Z,61.58
2022-09-13T19:14:39.910Z,62.12
2022-09-13T19:19:42.155Z,62.54
2022-09-13T19:24:44.449Z,63.18
2022-09-13T19:29:46.756Z,64.10
2022-09-13T19:34:49.126Z,64.38
2022-09-13T19:39:51.576Z,64.65
2022-09-13T19:44:53.942Z,64.93
2022-09-13T19:49:56.256Z,65.49
2022-09-13T19:55:00.092Z,65.36
2022-09-13T20:00:03.514Z,65.83
2022-09-13T20:05:10.210Z,65.43
2022-09-13T20:10:12.532Z,65.86
2022-09-13T20:15:14.879Z,66.13
2022-09-13T20:20:17.352Z,65.97
2022-09-13T20:25:19.664Z,65.97
2022-09-13T20:30:21.887Z,66.06
2022-09-13T20:35:27.285Z,66.33
2022-09-13T20:40:30.818Z,66.42
2022-09-13T20:45:33.279Z,66.23
2022-09-13T20:50:38.698Z,66.05
2022-09-13T20:55:42.374Z,66.11
2022-09-13T21:00:46.998Z,65.89
2022-09-13T21:05:49.255Z,66.10
2022-09-13T21:11:02.956Z,67.01
2022-09-13T21:16:11.537Z,66.71
2022-09-13T21:21:18.133Z,66.52
2022-09-13T21:26:23.121Z,66.40
2022-09-13T21:31:31.029Z,66.64
2022-09-13T21:36:37.632Z,66.38
2022-09-13T21:41:39.983Z,66.52
2022-09-13T21:46:42.337Z,66.72
2022-09-13T21:51:46.959Z,67.09
2022-09-13T21:56:53.792Z,68.16
2022-09-13T22:01:56.419Z,67.92
2022-09-13T22:06:58.728Z,68.55
2022-09-13T22:12:01.329Z,69.00
2022-09-13T22:17:03.660Z,69.37
2022-09-13T22:22:06.756Z,69.81
2022-09-13T22:27:09.869Z,70.21
2022-09-13T22:32:12.120Z,70.43
2022-09-13T22:37:14.661Z,70.75
2022-09-13T22:42:16.901Z,70.65
2022-09-13T22:47:19.728Z,71.05
2022-09-13T22:52:21.942Z,71.33
2022-09-13T22:57:24.197Z,71.53
2022-09-13T23:02:26.418Z,71.80
2022-09-13T23:07:28.641Z,71.89
2022-09-13T23:12:30.914Z,72.40
2022-09-13T23:17:33.148Z,72.59
2022-09-13T23:22:35.409Z,72.82
2022-09-13T23:27:37.625Z,73.10
2022-09-13T23:32:39.874Z,73.22
2022-09-13T23:37:42.128Z,72.98
2022-09-13T23:42:44.327Z,73.50
2022-09-13T23:47:46.571Z,73.45
2022-09-13T23:52:48.781Z,73.51
2022-09-13T23:57:50.972Z,73.75
